sensor_id;sensor_type;location;lat;lon;timestamp;temperature;humidity
19817;DHT22;68323;49.394;8.434;2023-07-13T00:01:04;21.70;71.70
19817;DHT22;68323;49.394;8.434;2023-07-13T00:03:29;21.60;71.60
19817;DHT22;68323;49.394;8.434;2023-07-13T00:06:00;21.60;71.40
19817;DHT22;68323;49.394;8.434;2023-07-13T00:08:29;21.50;71.20
19817;DHT22;68323;49.394;8.434;2023-07-13T00:10:55;21.50;71.40
19817;DHT22;68323;49.394;8.434;2023-07-13T00:13:20;21.40;71.70
19817;DHT22;68323;49.394;8.434;2023-07-13T00:15:46;21.40;72.00
19817;DHT22;68323;49.394;8.434;2023-07-13T00:18:12;21.30;72.00
19817;DHT22;68323;49.394;8.434;2023-07-13T00:20:37;21.20;71.60
19817;DHT22;68323;49.394;8.434;2023-07-13T00:23:03;21.10;70.60
19817;DHT22;68323;49.394;8.434;2023-07-13T00:25:28;21.00;70.00
19817;DHT22;68323;49.394;8.434;2023-07-13T00:27:54;21.00;70.20
19817;DHT22;68323;49.394;8.434;2023-07-13T00:30:20;21.00;71.50
19817;DHT22;68323;49.394;8.434;2023-07-13T00:32:46;20.90;70.90
19817;DHT22;68323;49.394;8.434;2023-07-13T00:35:14;20.90;71.00
19817;DHT22;68323;49.394;8.434;2023-07-13T00:37:39;20.80;71.60
19817;DHT22;68323;49.394;8.434;2023-07-13T00:40:06;20.70;71.70
19817;DHT22;68323;49.394;8.434;2023-07-13T00:42:32;20.60;73.20
19817;DHT22;68323;49.394;8.434;2023-07-13T00:45:05;20.50;74.60
19817;DHT22;68323;49.394;8.434;2023-07-13T00:47:31;20.40;75.70
19817;DHT22;68323;49.394;8.434;2023-07-13T00:49:57;20.30;76.40
19817;DHT22;68323;49.394;8.434;2023-07-13T00:52:23;20.20;76.90
19817;DHT22;68323;49.394;8.434;2023-07-13T00:54:49;20.10;78.90
19817;DHT22;68323;49.394;8.434;2023-07-13T00:57:17;20.00;80.30
19817;DHT22;68323;49.394;8.434;2023-07-13T00:59:48;19.90;81.10
19817;DHT22;68323;49.394;8.434;2023-07-13T01:02:15;19.80;80.20
19817;DHT22;68323;49.394;8.434;2023-07-13T01:04:41;19.70;79.00
19817;DHT22;68323;49.394;8.434;2023-07-13T01:07:09;19.70;78.90
19817;DHT22;68323;49.394;8.434;2023-07-13T01:09:35;19.60;79.20
19817;DHT22;68323;49.394;8.434;2023-07-13T01:12:01;19.60;80.20
19817;DHT22;68323;49.394;8.434;2023-07-13T01:14:27;19.60;81.20
19817;DHT22;68323;49.394;8.434;2023-07-13T01:16:53;19.60;82.00
19817;DHT22;68323;49.394;8.434;2023-07-13T01:19:41;19.50;82.90
19817;DHT22;68323;49.394;8.434;2023-07-13T01:22:10;19.40;84.10
19817;DHT22;68323;49.394;8.434;2023-07-13T01:24:42;19.30;83.40
19817;DHT22;68323;49.394;8.434;2023-07-13T01:27:10;19.30;84.10
19817;DHT22;68323;49.394;8.434;2023-07-13T01:29:38;19.30;83.50
19817;DHT22;68323;49.394;8.434;2023-07-13T01:32:09;19.30;81.50
19817;DHT22;68323;49.394;8.434;2023-07-13T01:34:35;19.20;81.80
19817;DHT22;68323;49.394;8.434;2023-07-13T01:37:03;19.20;81.40
19817;DHT22;68323;49.394;8.434;2023-07-13T01:39:28;19.20;82.20
19817;DHT22;68323;49.394;8.434;2023-07-13T01:41:54;19.20;81.00
19817;DHT22;68323;49.394;8.434;2023-07-13T01:44:19;19.20;81.00
19817;DHT22;68323;49.394;8.434;2023-07-13T01:46:45;19.20;80.00
19817;DHT22;68323;49.394;8.434;2023-07-13T01:49:11;19.20;80.10
19817;DHT22;68323;49.394;8.434;2023-07-13T01:51:36;19.20;79.70
19817;DHT22;68323;49.394;8.434;2023-07-13T01:54:02;19.20;79.70
19817;DHT22;68323;49.394;8.434;2023-07-13T01:56:27;19.20;80.30
19817;DHT22;68323;49.394;8.434;2023-07-13T01:58:53;19.10;79.20
19817;DHT22;68323;49.394;8.434;2023-07-13T02:01:18;19.10;78.60
19817;DHT22;68323;49.394;8.434;2023-07-13T02:03:44;19.10;80.30
19817;DHT22;68323;49.394;8.434;2023-07-13T02:06:09;19.10;80.40
19817;DHT22;68323;49.394;8.434;2023-07-13T02:08:35;19.10;80.60
19817;DHT22;68323;49.394;8.434;2023-07-13T02:11:03;19.10;81.50
19817;DHT22;68323;49.394;8.434;2023-07-13T02:13:28;19.00;82.90
19817;DHT22;68323;49.394;8.434;2023-07-13T02:15:54;19.00;84.20
19817;DHT22;68323;49.394;8.434;2023-07-13T02:18:19;18.90;85.10
19817;DHT22;68323;49.394;8.434;2023-07-13T02:20:45;18.80;85.50
19817;DHT22;68323;49.394;8.434;2023-07-13T02:23:11;18.80;88.10
19817;DHT22;68323;49.394;8.434;2023-07-13T02:25:37;18.70;88.70
19817;DHT22;68323;49.394;8.434;2023-07-13T02:28:02;18.60;90.10
19817;DHT22;68323;49.394;8.434;2023-07-13T02:30:29;18.50;90.20
19817;DHT22;68323;49.394;8.434;2023-07-13T02:32:56;18.50;90.80
19817;DHT22;68323;49.394;8.434;2023-07-13T02:35:21;18.40;91.10
19817;DHT22;68323;49.394;8.434;2023-07-13T02:37:47;18.40;91.20
19817;DHT22;68323;49.394;8.434;2023-07-13T02:40:13;18.30;91.80
19817;DHT22;68323;49.394;8.434;2023-07-13T02:42:39;18.30;92.90
19817;DHT22;68323;49.394;8.434;2023-07-13T02:45:05;18.20;93.30
19817;DHT22;68323;49.394;8.434;2023-07-13T02:47:32;18.20;94.00
19817;DHT22;68323;49.394;8.434;2023-07-13T02:49:57;18.10;94.40
19817;DHT22;68323;49.394;8.434;2023-07-13T02:52:23;18.10;94.90
19817;DHT22;68323;49.394;8.434;2023-07-13T02:54:48;18.10;95.20
19817;DHT22;68323;49.394;8.434;2023-07-13T02:57:14;18.00;96.10
19817;DHT22;68323;49.394;8.434;2023-07-13T02:59:39;18.00;96.20
19817;DHT22;68323;49.394;8.434;2023-07-13T03:02:05;18.00;96.70
19817;DHT22;68323;49.394;8.434;2023-07-13T03:04:30;18.00;97.10
19817;DHT22;68323;49.394;8.434;2023-07-13T03:06:56;17.90;98.00
19817;DHT22;68323;49.394;8.434;2023-07-13T03:09:25;17.90;97.20
19817;DHT22;68323;49.394;8.434;2023-07-13T03:11:54;17.90;95.50
19817;DHT22;68323;49.394;8.434;2023-07-13T03:14:21;18.00;93.40
19817;DHT22;68323;49.394;8.434;2023-07-13T03:16:47;18.20;92.00
19817;DHT22;68323;49.394;8.434;2023-07-13T03:19:13;18.20;91.30
19817;DHT22;68323;49.394;8.434;2023-07-13T03:21:38;18.20;91.30
19817;DHT22;68323;49.394;8.434;2023-07-13T03:24:04;18.30;90.90
19817;DHT22;68323;49.394;8.434;2023-07-13T03:26:29;18.30;91.40
19817;DHT22;68323;49.394;8.434;2023-07-13T03:28:55;18.30;92.20
19817;DHT22;68323;49.394;8.434;2023-07-13T03:31:26;18.30;92.00
19817;DHT22;68323;49.394;8.434;2023-07-13T03:33:52;18.20;92.10
19817;DHT22;68323;49.394;8.434;2023-07-13T03:36:24;18.20;92.40
19817;DHT22;68323;49.394;8.434;2023-07-13T03:38:55;18.10;92.60
19817;DHT22;68323;49.394;8.434;2023-07-13T03:41:22;18.10;93.30
19817;DHT22;68323;49.394;8.434;2023-07-13T03:43:48;18.10;94.00
19817;DHT22;68323;49.394;8.434;2023-07-13T03:46:14;18.10;93.40
19817;DHT22;68323;49.394;8.434;2023-07-13T03:48:41;18.10;93.10
19817;DHT22;68323;49.394;8.434;2023-07-13T03:51:09;18.10;93.10
19817;DHT22;68323;49.394;8.434;2023-07-13T03:53:39;18.20;92.90
19817;DHT22;68323;49.394;8.434;2023-07-13T03:56:05;18.20;92.90
19817;DHT22;68323;49.394;8.434;2023-07-13T03:58:36;18.20;92.80
19817;DHT22;68323;49.394;8.434;2023-07-13T04:01:03;18.20;92.60
19817;DHT22;68323;49.394;8.434;2023-07-13T04:03:31;18.30;92.60
19817;DHT22;68323;49.394;8.434;2023-07-13T04:05:58;18.30;92.50
19817;DHT22;68323;49.394;8.434;2023-07-13T04:08:29;18.30;92.70
19817;DHT22;68323;49.394;8.434;2023-07-13T04:10:56;18.40;93.50
19817;DHT22;68323;49.394;8.434;2023-07-13T04:13:23;18.40;93.80
19817;DHT22;68323;49.394;8.434;2023-07-13T04:15:48;18.50;93.30
19817;DHT22;68323;49.394;8.434;2023-07-13T04:18:14;18.50;94.60
19817;DHT22;68323;49.394;8.434;2023-07-13T04:20:39;18.50;95.10
19817;DHT22;68323;49.394;8.434;2023-07-13T04:23:05;18.50;95.70
19817;DHT22;68323;49.394;8.434;2023-07-13T04:25:31;18.50;95.40
19817;DHT22;68323;49.394;8.434;2023-07-13T04:27:56;18.50;95.30
19817;DHT22;68323;49.394;8.434;2023-07-13T04:30:22;18.50;94.70
19817;DHT22;68323;49.394;8.434;2023-07-13T04:32:49;18.60;94.40
19817;DHT22;68323;49.394;8.434;2023-07-13T04:35:15;18.60;93.70
19817;DHT22;68323;49.394;8.434;2023-07-13T04:37:42;18.70;94.30
19817;DHT22;68323;49.394;8.434;2023-07-13T04:40:08;18.70;93.80
19817;DHT22;68323;49.394;8.434;2023-07-13T04:42:37;18.80;93.40
19817;DHT22;68323;49.394;8.434;2023-07-13T04:45:05;18.90;92.80
19817;DHT22;68323;49.394;8.434;2023-07-13T04:47:31;19.00;92.30
19817;DHT22;68323;49.394;8.434;2023-07-13T04:49:57;19.10;91.70
19817;DHT22;68323;49.394;8.434;2023-07-13T04:52:23;19.10;91.40
19817;DHT22;68323;49.394;8.434;2023-07-13T04:54:49;19.20;91.80
19817;DHT22;68323;49.394;8.434;2023-07-13T04:57:14;19.30;92.80
19817;DHT22;68323;49.394;8.434;2023-07-13T04:59:40;19.30;94.90
19817;DHT22;68323;49.394;8.434;2023-07-13T05:02:06;19.40;95.70
19817;DHT22;68323;49.394;8.434;2023-07-13T05:04:31;19.40;96.80
19817;DHT22;68323;49.394;8.434;2023-07-13T05:06:57;19.40;98.20
19817;DHT22;68323;49.394;8.434;2023-07-13T05:09:22;19.40;99.20
19817;DHT22;68323;49.394;8.434;2023-07-13T05:11:48;19.40;99.40
19817;DHT22;68323;49.394;8.434;2023-07-13T05:14:13;19.40;99.20
19817;DHT22;68323;49.394;8.434;2023-07-13T05:16:40;19.50;99.00
19817;DHT22;68323;49.394;8.434;2023-07-13T05:19:06;19.40;98.30
19817;DHT22;68323;49.394;8.434;2023-07-13T05:21:31;19.50;97.80
19817;DHT22;68323;49.394;8.434;2023-07-13T05:23:57;19.60;97.60
19817;DHT22;68323;49.394;8.434;2023-07-13T05:26:22;19.60;98.40
19817;DHT22;68323;49.394;8.434;2023-07-13T05:28:48;19.70;99.10
19817;DHT22;68323;49.394;8.434;2023-07-13T05:31:14;19.80;99.00
19817;DHT22;68323;49.394;8.434;2023-07-13T05:33:40;19.90;98.70
19817;DHT22;68323;49.394;8.434;2023-07-13T05:36:06;20.20;98.50
19817;DHT22;68323;49.394;8.434;2023-07-13T05:38:32;20.60;97.50
19817;DHT22;68323;49.394;8.434;2023-07-13T05:40:58;20.90;95.70
19817;DHT22;68323;49.394;8.434;2023-07-13T05:43:24;21.20;94.20
19817;DHT22;68323;49.394;8.434;2023-07-13T05:45:54;21.50;93.30
19817;DHT22;68323;49.394;8.434;2023-07-13T05:48:20;21.80;93.30
19817;DHT22;68323;49.394;8.434;2023-07-13T05:50:46;22.30;92.20
19817;DHT22;68323;49.394;8.434;2023-07-13T05:53:12;22.70;90.40
19817;DHT22;68323;49.394;8.434;2023-07-13T05:55:42;23.10;89.20
19817;DHT22;68323;49.394;8.434;2023-07-13T05:58:09;23.30;86.70
19817;DHT22;68323;49.394;8.434;2023-07-13T06:00:35;23.50;84.10
19817;DHT22;68323;49.394;8.434;2023-07-13T06:03:00;23.50;80.80
19817;DHT22;68323;49.394;8.434;2023-07-13T06:05:26;23.50;79.70
19817;DHT22;68323;49.394;8.434;2023-07-13T06:07:54;23.50;79.70
19817;DHT22;68323;49.394;8.434;2023-07-13T06:10:19;23.50;77.10
19817;DHT22;68323;49.394;8.434;2023-07-13T06:12:45;23.60;77.30
19817;DHT22;68323;49.394;8.434;2023-07-13T06:15:12;23.80;76.90
19817;DHT22;68323;49.394;8.434;2023-07-13T06:17:37;24.30;73.30
19817;DHT22;68323;49.394;8.434;2023-07-13T06:20:03;25.10;70.70
19817;DHT22;68323;49.394;8.434;2023-07-13T06:22:29;26.10;67.80
19817;DHT22;68323;49.394;8.434;2023-07-13T06:24:54;27.10;64.20
19817;DHT22;68323;49.394;8.434;2023-07-13T06:27:20;28.10;59.50
19817;DHT22;68323;49.394;8.434;2023-07-13T06:29:45;29.00;56.90
19817;DHT22;68323;49.394;8.434;2023-07-13T06:32:11;29.90;54.70
19817;DHT22;68323;49.394;8.434;2023-07-13T06:34:36;30.70;52.80
19817;DHT22;68323;49.394;8.434;2023-07-13T06:37:02;31.40;51.40
19817;DHT22;68323;49.394;8.434;2023-07-13T06:39:28;32.00;49.40
19817;DHT22;68323;49.394;8.434;2023-07-13T06:41:53;32.70;48.40
19817;DHT22;68323;49.394;8.434;2023-07-13T06:44:19;33.10;46.60
19817;DHT22;68323;49.394;8.434;2023-07-13T06:46:44;33.20;45.40
19817;DHT22;68323;49.394;8.434;2023-07-13T06:49:10;33.50;45.90
19817;DHT22;68323;49.394;8.434;2023-07-13T06:51:35;33.70;44.70
19817;DHT22;68323;49.394;8.434;2023-07-13T06:54:01;34.10;44.70
19817;DHT22;68323;49.394;8.434;2023-07-13T06:56:26;34.50;44.40
19817;DHT22;68323;49.394;8.434;2023-07-13T06:58:52;34.90;43.00
19817;DHT22;68323;49.394;8.434;2023-07-13T07:01:17;35.20;41.90
19817;DHT22;68323;49.394;8.434;2023-07-13T07:03:43;35.40;41.30
19817;DHT22;68323;49.394;8.434;2023-07-13T07:06:19;35.60;41.50
19817;DHT22;68323;49.394;8.434;2023-07-13T07:08:45;36.00;40.90
19817;DHT22;68323;49.394;8.434;2023-07-13T07:11:14;36.20;39.70
19817;DHT22;68323;49.394;8.434;2023-07-13T07:13:40;36.50;38.70
19817;DHT22;68323;49.394;8.434;2023-07-13T07:16:05;36.80;38.60
19817;DHT22;68323;49.394;8.434;2023-07-13T07:18:32;36.90;38.30
19817;DHT22;68323;49.394;8.434;2023-07-13T07:20:57;37.20;38.00
19817;DHT22;68323;49.394;8.434;2023-07-13T07:23:23;37.60;38.00
19817;DHT22;68323;49.394;8.434;2023-07-13T07:25:48;38.00;37.90
19817;DHT22;68323;49.394;8.434;2023-07-13T07:28:16;38.30;36.80
19817;DHT22;68323;49.394;8.434;2023-07-13T07:30:47;38.50;35.60
19817;DHT22;68323;49.394;8.434;2023-07-13T07:33:13;38.80;34.80
19817;DHT22;68323;49.394;8.434;2023-07-13T07:35:39;39.10;35.40
19817;DHT22;68323;49.394;8.434;2023-07-13T07:38:04;39.20;34.60
19817;DHT22;68323;49.394;8.434;2023-07-13T07:40:30;39.30;34.10
19817;DHT22;68323;49.394;8.434;2023-07-13T07:42:57;39.40;33.70
19817;DHT22;68323;49.394;8.434;2023-07-13T07:45:22;39.30;33.50
19817;DHT22;68323;49.394;8.434;2023-07-13T07:47:48;39.30;33.50
19817;DHT22;68323;49.394;8.434;2023-07-13T07:50:14;39.30;33.60
19817;DHT22;68323;49.394;8.434;2023-07-13T07:52:40;39.30;33.30
19817;DHT22;68323;49.394;8.434;2023-07-13T07:55:07;39.30;33.10
19817;DHT22;68323;49.394;8.434;2023-07-13T07:57:33;39.30;33.50
19817;DHT22;68323;49.394;8.434;2023-07-13T07:59:58;39.30;33.10
19817;DHT22;68323;49.394;8.434;2023-07-13T08:02:25;39.10;33.40
19817;DHT22;68323;49.394;8.434;2023-07-13T08:04:50;39.00;33.50
19817;DHT22;68323;49.394;8.434;2023-07-13T08:07:16;38.70;34.10
19817;DHT22;68323;49.394;8.434;2023-07-13T08:09:42;38.40;33.40
19817;DHT22;68323;49.394;8.434;2023-07-13T08:12:07;38.10;34.20
19817;DHT22;68323;49.394;8.434;2023-07-13T08:14:33;38.20;34.80
19817;DHT22;68323;49.394;8.434;2023-07-13T08:16:59;38.30;33.80
19817;DHT22;68323;49.394;8.434;2023-07-13T08:19:24;38.40;34.40
19817;DHT22;68323;49.394;8.434;2023-07-13T08:21:50;38.60;33.80
19817;DHT22;68323;49.394;8.434;2023-07-13T08:24:15;38.70;33.90
19817;DHT22;68323;49.394;8.434;2023-07-13T08:26:44;38.90;33.50
19817;DHT22;68323;49.394;8.434;2023-07-13T08:29:09;39.20;33.70
19817;DHT22;68323;49.394;8.434;2023-07-13T08:31:35;39.40;33.00
19817;DHT22;68323;49.394;8.434;2023-07-13T08:34:00;39.60;32.20
19817;DHT22;68323;49.394;8.434;2023-07-13T08:36:26;40.00;32.10
19817;DHT22;68323;49.394;8.434;2023-07-13T08:38:53;40.40;32.20
19817;DHT22;68323;49.394;8.434;2023-07-13T08:41:18;40.80;32.20
19817;DHT22;68323;49.394;8.434;2023-07-13T08:43:51;41.20;30.90
19817;DHT22;68323;49.394;8.434;2023-07-13T08:46:26;41.40;31.00
19817;DHT22;68323;49.394;8.434;2023-07-13T08:48:59;41.30;31.20
19817;DHT22;68323;49.394;8.434;2023-07-13T08:51:45;41.00;31.80
19817;DHT22;68323;49.394;8.434;2023-07-13T08:54:24;40.80;31.60
19817;DHT22;68323;49.394;8.434;2023-07-13T08:56:53;40.40;31.60
19817;DHT22;68323;49.394;8.434;2023-07-13T08:59:22;39.40;32.10
19817;DHT22;68323;49.394;8.434;2023-07-13T09:05:25;39.30;33.00
19817;DHT22;68323;49.394;8.434;2023-07-13T09:10:31;39.50;32.50
19817;DHT22;68323;49.394;8.434;2023-07-13T09:15:44;38.90;32.60
19817;DHT22;68323;49.394;8.434;2023-07-13T09:18:26;38.60;33.70
19817;DHT22;68323;49.394;8.434;2023-07-13T09:21:13;38.70;33.90
19817;DHT22;68323;49.394;8.434;2023-07-13T09:23:40;39.00;32.30
19817;DHT22;68323;49.394;8.434;2023-07-13T09:26:17;39.20;32.10
19817;DHT22;68323;49.394;8.434;2023-07-13T09:28:45;39.30;32.00
19817;DHT22;68323;49.394;8.434;2023-07-13T09:31:16;39.40;31.80
19817;DHT22;68323;49.394;8.434;2023-07-13T09:33:43;39.90;31.60
19817;DHT22;68323;49.394;8.434;2023-07-13T09:36:22;40.30;31.30
19817;DHT22;68323;49.394;8.434;2023-07-13T09:39:04;40.60;31.20
19817;DHT22;68323;49.394;8.434;2023-07-13T09:44:51;39.40;31.60
19817;DHT22;68323;49.394;8.434;2023-07-13T09:47:27;38.30;32.70
19817;DHT22;68323;49.394;8.434;2023-07-13T09:50:00;37.30;33.60
19817;DHT22;68323;49.394;8.434;2023-07-13T09:52:28;36.30;34.80
19817;DHT22;68323;49.394;8.434;2023-07-13T09:55:04;35.50;35.60
19817;DHT22;68323;49.394;8.434;2023-07-13T09:57:30;34.90;36.80
19817;DHT22;68323;49.394;8.434;2023-07-13T09:59:56;34.80;37.60
19817;DHT22;68323;49.394;8.434;2023-07-13T10:02:34;34.50;37.70
19817;DHT22;68323;49.394;8.434;2023-07-13T10:05:02;34.60;38.00
19817;DHT22;68323;49.394;8.434;2023-07-13T10:07:29;35.20;37.20
19817;DHT22;68323;49.394;8.434;2023-07-13T10:09:57;36.00;36.00
19817;DHT22;68323;49.394;8.434;2023-07-13T10:12:24;37.00;34.90
19817;DHT22;68323;49.394;8.434;2023-07-13T10:14:55;37.80;34.00
19817;DHT22;68323;49.394;8.434;2023-07-13T10:17:28;38.60;33.00
19817;DHT22;68323;49.394;8.434;2023-07-13T10:20:04;39.30;32.30
19817;DHT22;68323;49.394;8.434;2023-07-13T10:25:20;39.70;30.00
19817;DHT22;68323;49.394;8.434;2023-07-13T10:27:55;39.60;29.90
19817;DHT22;68323;49.394;8.434;2023-07-13T10:30:27;39.30;30.90
19817;DHT22;68323;49.394;8.434;2023-07-13T10:32:58;39.00;31.30
19817;DHT22;68323;49.394;8.434;2023-07-13T10:35:26;38.30;32.10
19817;DHT22;68323;49.394;8.434;2023-07-13T10:38:01;37.50;31.90
19817;DHT22;68323;49.394;8.434;2023-07-13T10:41:04;36.50;32.10
19817;DHT22;68323;49.394;8.434;2023-07-13T10:43:36;35.40;33.50
19817;DHT22;68323;49.394;8.434;2023-07-13T10:46:09;34.40;34.20
19817;DHT22;68323;49.394;8.434;2023-07-13T10:48:36;33.70;35.00
19817;DHT22;68323;49.394;8.434;2023-07-13T10:51:04;33.20;34.90
19817;DHT22;68323;49.394;8.434;2023-07-13T10:53:36;33.10;34.90
19817;DHT22;68323;49.394;8.434;2023-07-13T10:56:19;33.30;35.30
19817;DHT22;68323;49.394;8.434;2023-07-13T10:59:15;33.30;35.40
19817;DHT22;68323;49.394;8.434;2023-07-13T11:01:50;33.00;35.60
19817;DHT22;68323;49.394;8.434;2023-07-13T11:04:19;32.70;35.90
19817;DHT22;68323;49.394;8.434;2023-07-13T11:06:48;32.30;36.60
19817;DHT22;68323;49.394;8.434;2023-07-13T11:15:00;31.90;36.40
19817;DHT22;68323;49.394;8.434;2023-07-13T11:18:01;31.90;37.10
19817;DHT22;68323;49.394;8.434;2023-07-13T11:20:37;32.00;37.60
19817;DHT22;68323;49.394;8.434;2023-07-13T11:25:39;31.70;37.10
19817;DHT22;68323;49.394;8.434;2023-07-13T11:33:31;31.40;37.60
19817;DHT22;68323;49.394;8.434;2023-07-13T11:36:16;31.30;36.70
19817;DHT22;68323;49.394;8.434;2023-07-13T11:41:34;31.30;37.30
19817;DHT22;68323;49.394;8.434;2023-07-13T11:44:20;31.40;37.70
19817;DHT22;68323;49.394;8.434;2023-07-13T11:46:52;31.40;36.70
19817;DHT22;68323;49.394;8.434;2023-07-13T11:49:19;31.30;37.00
19817;DHT22;68323;49.394;8.434;2023-07-13T11:51:46;31.10;37.70
19817;DHT22;68323;49.394;8.434;2023-07-13T11:54:33;31.00;38.80
19817;DHT22;68323;49.394;8.434;2023-07-13T11:57:03;30.80;39.00
19817;DHT22;68323;49.394;8.434;2023-07-13T11:59:32;30.60;39.50
19817;DHT22;68323;49.394;8.434;2023-07-13T12:01:59;30.60;38.20
19817;DHT22;68323;49.394;8.434;2023-07-13T12:04:32;30.50;38.40
19817;DHT22;68323;49.394;8.434;2023-07-13T12:07:11;30.50;38.50
19817;DHT22;68323;49.394;8.434;2023-07-13T12:09:39;30.40;39.10
19817;DHT22;68323;49.394;8.434;2023-07-13T12:12:17;30.50;39.10
19817;DHT22;68323;49.394;8.434;2023-07-13T12:14:43;30.60;38.90
19817;DHT22;68323;49.394;8.434;2023-07-13T12:17:15;30.60;39.10
19817;DHT22;68323;49.394;8.434;2023-07-13T12:19:41;30.70;37.70
19817;DHT22;68323;49.394;8.434;2023-07-13T12:22:10;30.80;37.90
19817;DHT22;68323;49.394;8.434;2023-07-13T12:24:37;31.10;37.60
19817;DHT22;68323;49.394;8.434;2023-07-13T12:27:04;31.40;36.90
19817;DHT22;68323;49.394;8.434;2023-07-13T12:29:32;31.50;36.40
19817;DHT22;68323;49.394;8.434;2023-07-13T12:31:58;31.70;36.50
19817;DHT22;68323;49.394;8.434;2023-07-13T12:34:25;31.80;36.30
19817;DHT22;68323;49.394;8.434;2023-07-13T12:36:58;31.80;36.70
19817;DHT22;68323;49.394;8.434;2023-07-13T12:39:36;31.70;37.60
19817;DHT22;68323;49.394;8.434;2023-07-13T12:44:42;31.00;40.10
19817;DHT22;68323;49.394;8.434;2023-07-13T12:47:12;30.70;39.50
19817;DHT22;68323;49.394;8.434;2023-07-13T12:49:53;30.50;40.00
19817;DHT22;68323;49.394;8.434;2023-07-13T12:52:28;30.30;40.00
19817;DHT22;68323;49.394;8.434;2023-07-13T12:54:57;30.20;40.30
19817;DHT22;68323;49.394;8.434;2023-07-13T12:57:23;30.30;39.60
19817;DHT22;68323;49.394;8.434;2023-07-13T12:59:52;30.30;39.40
19817;DHT22;68323;49.394;8.434;2023-07-13T13:02:36;30.50;39.70
19817;DHT22;68323;49.394;8.434;2023-07-13T13:05:02;30.60;39.60
19817;DHT22;68323;49.394;8.434;2023-07-13T13:07:29;30.60;39.10
19817;DHT22;68323;49.394;8.434;2023-07-13T13:09:55;30.60;39.40
19817;DHT22;68323;49.394;8.434;2023-07-13T13:12:22;30.60;39.50
19817;DHT22;68323;49.394;8.434;2023-07-13T13:14:49;30.70;39.70
19817;DHT22;68323;49.394;8.434;2023-07-13T13:17:23;30.70;39.70
19817;DHT22;68323;49.394;8.434;2023-07-13T13:19:50;30.70;39.70
19817;DHT22;68323;49.394;8.434;2023-07-13T13:22:18;30.70;39.70
19817;DHT22;68323;49.394;8.434;2023-07-13T13:24:43;30.60;39.60
19817;DHT22;68323;49.394;8.434;2023-07-13T13:27:27;30.60;39.70
19817;DHT22;68323;49.394;8.434;2023-07-13T13:29:53;30.60;40.20
19817;DHT22;68323;49.394;8.434;2023-07-13T13:32:19;30.70;40.30
19817;DHT22;68323;49.394;8.434;2023-07-13T13:34:44;30.70;40.20
19817;DHT22;68323;49.394;8.434;2023-07-13T13:37:20;30.90;39.40
19817;DHT22;68323;49.394;8.434;2023-07-13T13:39:47;31.00;38.80
19817;DHT22;68323;49.394;8.434;2023-07-13T13:42:13;31.10;39.30
19817;DHT22;68323;49.394;8.434;2023-07-13T13:44:39;31.00;39.20
19817;DHT22;68323;49.394;8.434;2023-07-13T13:47:32;31.10;39.10
19817;DHT22;68323;49.394;8.434;2023-07-13T13:49:58;31.10;38.70
19817;DHT22;68323;49.394;8.434;2023-07-13T13:52:24;31.10;38.00
19817;DHT22;68323;49.394;8.434;2023-07-13T13:54:51;31.10;38.30
19817;DHT22;68323;49.394;8.434;2023-07-13T13:57:22;31.20;38.80
19817;DHT22;68323;49.394;8.434;2023-07-13T13:59:48;31.10;38.30
19817;DHT22;68323;49.394;8.434;2023-07-13T14:02:41;31.10;38.40
19817;DHT22;68323;49.394;8.434;2023-07-13T14:05:11;31.10;38.40
19817;DHT22;68323;49.394;8.434;2023-07-13T14:07:37;31.10;38.50
19817;DHT22;68323;49.394;8.434;2023-07-13T14:10:14;31.10;38.70
19817;DHT22;68323;49.394;8.434;2023-07-13T14:12:42;31.00;38.90
19817;DHT22;68323;49.394;8.434;2023-07-13T14:15:22;30.90;38.90
19817;DHT22;68323;49.394;8.434;2023-07-13T14:17:48;30.90;38.20
19817;DHT22;68323;49.394;8.434;2023-07-13T14:20:16;30.60;38.80
19817;DHT22;68323;49.394;8.434;2023-07-13T14:22:42;30.30;39.40
19817;DHT22;68323;49.394;8.434;2023-07-13T14:25:14;30.00;40.50
19817;DHT22;68323;49.394;8.434;2023-07-13T14:27:41;29.90;41.50
19817;DHT22;68323;49.394;8.434;2023-07-13T14:30:20;29.90;40.90
19817;DHT22;68323;49.394;8.434;2023-07-13T14:32:47;29.80;40.80
19817;DHT22;68323;49.394;8.434;2023-07-13T14:35:17;29.80;41.20
19817;DHT22;68323;49.394;8.434;2023-07-13T14:37:44;29.80;41.30
19817;DHT22;68323;49.394;8.434;2023-07-13T14:40:15;29.80;40.70
19817;DHT22;68323;49.394;8.434;2023-07-13T14:42:42;29.80;40.40
19817;DHT22;68323;49.394;8.434;2023-07-13T14:45:15;29.80;40.40
19817;DHT22;68323;49.394;8.434;2023-07-13T14:47:42;29.80;41.10
19817;DHT22;68323;49.394;8.434;2023-07-13T14:50:17;29.80;42.30
19817;DHT22;68323;49.394;8.434;2023-07-13T14:52:43;29.90;42.20
19817;DHT22;68323;49.394;8.434;2023-07-13T14:55:13;29.90;42.10
19817;DHT22;68323;49.394;8.434;2023-07-13T14:57:39;30.10;41.80
19817;DHT22;68323;49.394;8.434;2023-07-13T15:00:13;30.20;41.80
19817;DHT22;68323;49.394;8.434;2023-07-13T15:02:41;30.30;41.50
19817;DHT22;68323;49.394;8.434;2023-07-13T15:05:19;30.40;41.40
19817;DHT22;68323;49.394;8.434;2023-07-13T15:07:45;30.40;41.00
19817;DHT22;68323;49.394;8.434;2023-07-13T15:10:21;30.30;41.10
19817;DHT22;68323;49.394;8.434;2023-07-13T15:12:47;30.20;41.10
19817;DHT22;68323;49.394;8.434;2023-07-13T15:15:14;30.10;41.00
19817;DHT22;68323;49.394;8.434;2023-07-13T15:21:01;30.00;41.10
19817;DHT22;68323;49.394;8.434;2023-07-13T15:23:29;29.70;41.60
19817;DHT22;68323;49.394;8.434;2023-07-13T15:25:54;29.60;41.80
19817;DHT22;68323;49.394;8.434;2023-07-13T15:28:20;29.50;41.30
19817;DHT22;68323;49.394;8.434;2023-07-13T15:30:48;29.50;41.10
19817;DHT22;68323;49.394;8.434;2023-07-13T15:35:48;29.50;41.10
19817;DHT22;68323;49.394;8.434;2023-07-13T15:38:17;29.50;41.00
19817;DHT22;68323;49.394;8.434;2023-07-13T15:40:43;29.50;41.10
19817;DHT22;68323;49.394;8.434;2023-07-13T15:43:12;29.60;40.90
19817;DHT22;68323;49.394;8.434;2023-07-13T15:45:39;29.80;41.40
19817;DHT22;68323;49.394;8.434;2023-07-13T15:48:23;29.90;41.30
19817;DHT22;68323;49.394;8.434;2023-07-13T15:50:54;29.90;40.90
19817;DHT22;68323;49.394;8.434;2023-07-13T15:53:24;30.00;41.20
19817;DHT22;68323;49.394;8.434;2023-07-13T15:55:50;29.90;40.90
19817;DHT22;68323;49.394;8.434;2023-07-13T15:58:17;29.90;41.30
19817;DHT22;68323;49.394;8.434;2023-07-13T16:00:43;29.80;41.00
19817;DHT22;68323;49.394;8.434;2023-07-13T16:03:10;29.80;40.70
19817;DHT22;68323;49.394;8.434;2023-07-13T16:05:36;29.60;40.70
19817;DHT22;68323;49.394;8.434;2023-07-13T16:08:03;29.50;41.30
19817;DHT22;68323;49.394;8.434;2023-07-13T16:10:35;29.30;41.50
19817;DHT22;68323;49.394;8.434;2023-07-13T16:13:04;29.10;41.60
19817;DHT22;68323;49.394;8.434;2023-07-13T16:15:30;28.80;42.10
19817;DHT22;68323;49.394;8.434;2023-07-13T16:17:56;28.50;42.50